Time;durP1;ratioP1;P1;durP2;ratioP2;P2;SDS_P1;SDS_P2;PMS_P1;PMS_P2;Temp;Humidity;BMP_temperature;BMP_pressure;BME280_temperature;BME280_humidity;BME280_pressure;Samples;Min_cycle;Max_cycle;Signal;HPM_P1;HPM_P2
2022/12/23 00:00:44;;;;;;;44.42;21.88;;;;;;;8.58;54.81;100262.78;7391639;19;19998;-57
2022/12/23 00:03:10;;;;;;;44.70;22.02;;;;;;;8.49;54.72;100267.50;7388956;19;20021;-58
2022/12/23 00:05:37;;;;;;;38.90;20.02;;;;;;;8.65;54.46;100270.38;7392176;19;19999;-57
2022/12/23 00:08:04;;;;;;;39.13;21.10;;;;;;;8.71;54.22;100266.25;7391692;19;20006;-57
2022/12/23 00:10:29;;;;;;;40.25;20.23;;;;;;;8.77;54.21;100270.34;7391146;19;20486;-57
2022/12/23 00:15:39;;;;;;;;;;;;;;;8.37;54.95;100262.88;7390789;19;20078;-57
2022/12/23 00:18:05;;;;;;;;;;;;;;;8.45;55.17;100259.25;7391123;19;19928;-57
2022/12/23 00:20:33;;;;;;;;;;;;;;;8.62;54.64;100262.88;7391369;19;19918;-57
2022/12/23 00:23:04;;;;;;;;;;;;;;;8.69;54.21;100263.09;7388138;19;19931;-57
2022/12/23 00:25:40;;;;;;;;;;;;;;;8.67;54.34;100260.72;7391583;19;19941;-58
2022/12/23 00:28:06;;;;;;;;;;;;;;;8.65;54.13;100257.53;7391257;19;19951;-58
2022/12/23 00:30:32;;;;;;;;;;;;;;;8.65;54.33;100249.38;7391772;19;19984;-58
2022/12/23 00:32:57;;;;;;;;;;;;;;;8.61;54.28;100258.56;7389641;19;19919;-58
2022/12/23 00:35:23;;;;;;;;;;;;;;;8.59;54.60;100264.34;7391689;19;19910;-57
2022/12/23 00:37:48;;;;;;;;;;;;;;;8.62;54.24;100262.88;7391689;19;19919;-57
2022/12/23 00:43:18;;;;;;;;;;;;;;;8.65;53.95;100273.09;7384993;19;20008;-57
2022/12/23 00:45:44;;;;;;;;;;;;;;;8.68;53.51;100265.03;7387236;19;19927;-57
2022/12/23 00:50:54;;;;;;;;;;;;;;;8.16;54.93;100271.06;7389084;19;20278;-58
2022/12/23 00:53:20;;;;;;;;;;;;;;;8.26;55.31;100273.34;7388870;19;19907;-57
2022/12/23 00:55:46;;;;;;;;;;;;;;;8.35;54.62;100276.00;7391609;19;19915;-57
2022/12/23 00:58:13;;;;;;;;;;;;;;;8.42;54.80;100278.97;7390982;19;20251;-57
2022/12/23 01:06:07;;;;;;;;;;;;;;;8.20;54.84;100284.78;7390204;19;20300;-57
2022/12/23 01:08:32;;;;;;;;;;;;;;;8.27;54.95;100280.38;7388558;19;19915;-57
2022/12/23 01:11:01;;;;;;;;;;;;;;;8.29;54.83;100277.34;7390249;19;20390;-58
2022/12/23 01:13:26;;;;;;;;;;;;;;;8.09;54.88;100271.63;7388013;19;19919;-58
2022/12/23 01:15:52;;;;;;;;;;;;;;;8.14;55.41;100278.78;7390459;19;19914;-58
2022/12/23 01:18:18;;;;;;;;;;;;;;;8.28;54.78;100281.97;7390458;19;20350;-58
2022/12/23 01:20:43;;;;;;;;;;;;;;;8.37;54.42;100284.63;7389384;19;19911;-58
2022/12/23 01:23:09;;;;;;;;;;;;;;;8.19;54.81;100289.44;7386549;19;19921;-58
2022/12/23 01:25:34;;;;;;;;;;;;;;;8.02;55.56;100290.44;7390251;19;19918;-58
2022/12/23 01:28:00;;;;;;;;;;;;;;;8.27;55.10;100288.53;7392221;19;19915;-58
2022/12/23 01:30:32;;;;;;;;;;;;;;;8.33;54.59;100291.84;7397122;19;19922;-58
2022/12/23 01:32:58;;;;;;;;;;;;;;;8.16;54.83;100293.63;7394313;19;20278;-58
2022/12/23 01:35:23;;;;;;;;;;;;;;;8.01;55.50;100298.91;7397121;19;19911;-59
2022/12/23 01:37:49;;;;;;;;;;;;;;;7.90;56.07;100290.41;7396878;19;19914;-58
2022/12/23 01:40:15;;;;;;;;;;;;;;;8.19;55.29;100292.16;7397283;19;19915;-58
2022/12/23 01:42:43;;;;;;;;;;;;;;;8.39;55.03;100298.66;7394817;19;19914;-57
2022/12/23 01:45:09;;;;;;;;;;;;;;;8.25;54.90;100290.03;7397769;19;20035;-57
2022/12/23 01:47:41;;;;;;;;;;;;;;;8.10;55.08;100294.19;7396419;19;19919;-58
2022/12/23 01:50:11;;;;;;;;;;;;;;;8.14;55.59;100301.31;7397123;19;19936;-58
2022/12/23 01:52:57;;;;;;;;;;;;;;;8.20;55.07;100301.09;7394278;19;19941;-58
2022/12/23 01:55:24;;;;;;;;;;;;;;;8.13;55.19;100307.91;7396283;19;19919;-57
2022/12/23 01:57:51;;;;;;;;;;;;;;;7.91;55.85;100302.84;7394035;19;20312;-57
2022/12/23 02:05:46;;;;;;;;;;;;;;;7.89;56.12;100307.81;7395994;19;19955;-57
2022/12/23 02:11:25;;;;;;;;;;;;;;;7.97;55.64;100309.66;7396087;19;19934;-57
2022/12/23 02:17:04;;;;;;;;;;;;;;;8.38;54.75;100305.25;7393583;19;19915;-57
2022/12/23 02:19:47;;;;;;;;;;;;;;;8.28;54.70;100308.34;7396975;19;19914;-57
2022/12/23 02:22:13;;;;;;;;;;;;;;;8.48;54.46;100315.69;7394971;19;20309;-57
2022/12/23 02:25:02;;;;;;;;;;;;;;;8.42;54.35;100311.59;7395916;19;20330;-58
2022/12/23 02:27:29;;;;;;;;;;;;;;;8.35;54.68;100314.09;7393284;19;19934;-58
2022/12/23 02:30:01;;;;;;;;;;;;;;;8.44;54.16;100317.47;7393173;19;19918;-58
2022/12/23 02:32:45;;;;;;;;;;;;;;;8.43;54.07;100321.34;7393712;19;19925;-58
2022/12/23 02:35:13;;;;;;;;;;;;;;;8.34;54.42;100326.09;7394778;19;20362;-58
2022/12/23 02:37:39;;;;;;;;;;;;;;;8.43;54.35;100324.06;7394816;19;19993;-58
2022/12/23 02:40:11;;;;;;;;;;;;;;;8.44;54.26;100322.91;7393102;19;19926;-58
2022/12/23 02:42:43;;;;;;;;;;;;;;;8.38;54.21;100324.28;7392317;19;19915;-58
2022/12/23 02:45:17;;;;;;;;;;;;;;;8.16;54.79;100333.59;7395276;19;20336;-58
2022/12/23 02:47:48;;;;;;;;;;;;;;;8.00;55.47;100341.63;7395032;19;19919;-57
2022/12/23 02:50:18;;;;;;;;;;;;;;;8.05;55.11;100335.97;7395608;19;19911;-58
2022/12/23 02:52:45;;;;;;;;;;;;;;;8.09;55.09;100344.25;7392023;19;19926;-57
2022/12/23 02:55:13;;;;;;;;;;;;;;;8.10;55.13;100351.28;7394474;19;19915;-57
2022/12/23 02:57:41;;;;;;;;;;;;;;;8.27;54.80;100350.28;7394454;19;19922;-57
2022/12/23 03:00:07;;;;;;;;;;;;;;;8.33;54.72;100348.97;7393075;19;19922;-57
2022/12/23 03:02:34;;;;;;;;;;;;;;;8.42;54.40;100357.81;7393137;19;19927;-58
2022/12/23 03:05:00;;;;;;;;;;;;;;;8.44;54.29;100343.91;7392771;19;19915;-58
2022/12/23 03:07:31;;;;;;;;;;;;;;;8.43;54.18;100351.28;7392398;19;19919;-58
2022/12/23 03:10:17;;;;;;;;;;;;;;;8.44;54.36;100350.13;7392247;19;19930;-58
2022/12/23 03:12:51;;;;;;;;;;;;;;;8.48;54.28;100352.94;7392049;19;19978;-58
2022/12/23 03:15:30;;;;;;;;;;;;;;;8.49;54.58;100352.63;7394708;19;19910;-57
2022/12/23 03:18:00;;;;;;;;;;;;;;;8.37;54.72;100359.97;7394219;19;19970;-57
2022/12/23 03:20:29;;;;;;;;;;;;;;;8.22;54.98;100353.22;7394408;19;19907;-57
2022/12/23 03:23:02;;;;;;;;;;;;;;;8.25;55.35;100371.59;7391827;19;19915;-57
2022/12/23 03:25:34;;;;;;;;;;;;;;;8.36;55.18;100374.69;7392046;19;19995;-58
2022/12/23 03:27:59;;;;;;;;;;;;;;;8.40;55.19;100368.25;7393380;19;19952;-57
2022/12/23 03:30:26;;;;;;;;;;;;;;;8.33;55.22;100368.81;7394266;19;19907;-57
2022/12/23 03:33:00;;;;;;;;;;;;;;;8.30;55.29;100365.94;7389593;19;19947;-57
2022/12/23 03:35:30;;;;;;;;;;;;;;;8.28;55.74;100370.91;7393066;19;19956;-58
2022/12/23 03:37:57;;;;;;;;;;;;;;;8.39;55.32;100376.75;7393165;19;19919;-58
2022/12/23 03:40:25;;;;;;;;;;;;;;;8.47;55.13;100376.66;7393396;19;19911;-58
2022/12/23 03:42:54;;;;;;;;;;;;;;;8.48;55.21;100389.13;7390734;19;19974;-58
2022/12/23 03:45:23;;;;;;;;;;;;;;;8.49;55.13;100379.81;7393951;19;19907;-57
2022/12/23 03:47:51;;;;;;;;;;;;;;;8.54;55.15;100378.81;7393416;19;19907;-57
2022/12/23 03:50:18;;;;;;;;;;;;;;;8.47;54.97;100382.09;7392989;19;20351;-57
2022/12/23 03:52:49;;;;;;;;;;;;;;;8.42;55.14;100379.59;7391021;19;19938;-57
2022/12/23 03:55:21;;;;;;;;;;;;;;;8.50;54.92;100381.41;7392438;19;19914;-57
2022/12/23 03:57:54;;;;;;;;;;;;;;;8.62;54.89;100377.91;7392474;19;20001;-57
2022/12/23 04:00:20;;;;;;;;;;;;;;;8.64;54.96;100383.03;7392585;19;19970;-57
2022/12/23 04:03:05;;;;;;;;;;;;;;;8.59;54.98;100388.69;7389541;19;20332;-57
2022/12/23 04:05:39;;;;;;;;;;;;;;;8.50;55.26;100392.28;7390113;19;19925;-58
2022/12/23 04:08:04;;;;;;;;;;;;;;;8.49;55.34;100390.69;7391910;19;19919;-58
2022/12/23 04:10:30;;;;;;;;;;;;;;;8.50;55.43;100397.75;7391565;19;19945;-58
2022/12/23 04:12:56;;;;;;;;;;;;;;;8.53;55.19;100402.50;7390876;19;19991;-58
2022/12/23 04:15:23;;;;;;;;;;;;;;;8.49;55.36;100407.03;7392509;19;19915;-58
2022/12/23 04:17:49;;;;;;;;;;;;;;;8.53;55.32;100396.25;7390398;19;19998;-58
2022/12/23 04:20:15;;;;;;;;;;;;;;;8.62;55.13;100407.84;7392068;19;20332;-58
2022/12/23 04:22:42;;;;;;;;;;;;;;;8.67;54.97;100409.56;7389780;19;19919;-58
2022/12/23 04:25:08;;;;;;;;;;;;;;;8.58;55.12;100412.38;7391669;19;19938;-58
2022/12/23 04:27:34;;;;;;;;;;;;;;;8.62;55.18;100416.00;7391696;19;19931;-58
2022/12/23 04:29:59;;;;;;;;;;;;;;;8.63;55.04;100422.22;7389551;19;19919;-57
2022/12/23 04:32:25;;;;;;;;;;;;;;;8.49;55.30;100417.91;7389654;19;19915;-57
2022/12/23 04:34:51;;;;;;;;;;;;;;;8.47;55.52;100425.59;7391268;19;19986;-57
2022/12/23 04:37:16;;;;;;;;;;;;;;;8.55;55.34;100432.09;7389619;19;19919;-57
2022/12/23 04:39:42;;;;;;;;;;;;;;;8.50;55.30;100435.81;7391149;19;20255;-57
2022/12/23 04:42:08;;;;;;;;;;;;;;;8.55;55.26;100436.72;7391622;19;19919;-57
2022/12/23 04:44:33;;;;;;;;;;;;;;;8.53;55.41;100439.78;7384956;19;19919;-58
2022/12/23 04:46:59;;;;;;;;;;;;;;;8.49;55.43;100439.66;7394897;19;19990;-59
2022/12/23 04:49:25;;;;;;;;;;;;;;;8.50;55.20;100435.81;7389908;19;19918;-59
2022/12/23 04:51:50;;;;;;;;;;;;;;;8.42;55.59;100436.69;7391265;19;19970;-58
2022/12/23 04:54:16;;;;;;;;;;;;;;;8.45;55.73;100446.13;7389503;19;20328;-58
2022/12/23 04:56:41;;;;;;;;;;;;;;;8.43;55.52;100449.19;7390755;19;19966;-59
2022/12/23 04:59:08;;;;;;;;;;;;;;;8.56;55.49;100451.94;7390359;19;20622;-59
2022/12/23 05:01:34;;;;;;;;;;;;;;;8.47;55.41;100452.81;7391514;19;19927;-59
2022/12/23 05:03:59;;;;;;;;;;;;;;;8.42;55.66;100450.31;7394751;19;19919;-57
2022/12/23 05:06:25;;;;;;;;;;;;;;;8.41;55.81;100443.25;7398087;19;20327;-57
2022/12/23 05:08:51;;;;;;;;;;;;;;;8.33;55.80;100446.84;7394878;19;19946;-58
2022/12/23 05:11:16;;;;;;;;;;;;;;;8.28;55.88;100441.59;7395809;19;19914;-59
2022/12/23 05:13:42;;;;;;;;;;;;;;;8.28;55.81;100444.31;7396708;19;19911;-59
2022/12/23 05:16:08;;;;;;;;;;;;;;;8.42;55.44;100444.84;7398176;19;19933;-61
2022/12/23 05:18:33;;;;;;;;;;;;;;;8.51;55.35;100447.47;7397265;19;19922;-62
2022/12/23 05:20:59;;;;;;;;;;;;;;;8.37;55.63;100455.94;7398098;19;19926;-61
2022/12/23 05:23:24;;;;;;;;;;;;;;;8.44;55.54;100460.84;7395108;19;19919;-61
2022/12/23 05:25:51;;;;;;;;;;;;;;;8.56;55.20;100466.31;7397390;19;20332;-59
2022/12/23 05:28:21;;;;;;;;;;;;;;;8.55;54.92;100463.94;7397246;19;19926;-59
2022/12/23 05:30:46;;;;;;;;;;;;;;;8.48;55.14;100468.00;7397588;19;19967;-59
2022/12/23 05:33:12;;;;;;;;;;;;;;;8.43;55.26;100470.94;7396345;19;20225;-59
2022/12/23 05:35:38;;;;;;;;;;;;;;;8.43;55.28;100468.22;7394994;19;19913;-60
2022/12/23 05:38:03;;;;;;;;;;;;;;;8.39;55.44;100475.44;7397237;19;19918;-59
2022/12/23 05:40:30;;;;;;;;;;;;;;;8.40;55.73;100468.88;7396860;19;19918;-58
2022/12/23 05:42:55;;;;;;;;;;;;;;;8.51;55.61;100480.94;7396487;19;19942;-59
2022/12/23 05:45:21;;;;;;;;;;;;;;;8.49;55.45;100469.56;7394477;19;19911;-59
2022/12/23 05:47:47;;;;;;;;;;;;;;;8.42;55.58;100466.63;7396740;19;19930;-59
2022/12/23 05:50:13;;;;;;;;;;;;;;;8.51;55.24;100470.06;7396671;19;19918;-59
2022/12/23 05:52:38;;;;;;;;;;;;;;;8.58;54.99;100466.78;7395925;19;20424;-58
2022/12/23 05:55:04;;;;;;;;;;;;;;;8.64;54.82;100464.66;7394072;19;20362;-58
2022/12/23 05:57:31;;;;;;;;;;;;;;;8.38;54.90;100470.34;7396443;19;19926;-58
2022/12/23 05:59:57;;;;;;;;;;;;;;;8.47;55.33;100471.84;7396433;19;19923;-58
2022/12/23 06:02:22;;;;;;;;;;;;;;;8.35;55.15;100471.81;7395406;19;19921;-58
2022/12/23 06:04:48;;;;;;;;;;;;;;;8.38;55.69;100476.59;7394622;19;19915;-59
2022/12/23 06:07:17;;;;;;;;;;;;;;;8.46;55.54;100472.97;7396065;19;19958;-57
2022/12/23 06:09:42;;;;;;;;;;;;;;;8.53;55.48;100472.41;7394218;19;20233;-59
2022/12/23 06:12:08;;;;;;;;;;;;;;;8.57;55.07;100467.13;7396120;19;19915;-58
2022/12/23 06:14:34;;;;;;;;;;;;;;;8.48;55.43;100470.72;7391352;19;19921;-58
2022/12/23 06:16:59;;;;;;;;;;;;;;;8.35;55.56;100482.69;7394848;19;19953;-58
2022/12/23 06:19:25;;;;;;;;;;;;;;;8.41;55.38;100486.78;7395913;19;19933;-58
2022/12/23 06:21:51;;;;;;;;;;;;;;;8.45;55.46;100486.94;7395438;19;20025;-58
2022/12/23 06:24:16;;;;;;;;;;;;;;;8.40;55.50;100490.63;7392070;19;20346;-57
2022/12/23 06:26:42;;;;;;;;;;;;;;;8.35;55.71;100490.84;7395010;19;19915;-58
2022/12/23 06:29:09;;;;;;;;;;;;;;;8.32;55.79;100492.28;7394304;19;19970;-58
2022/12/23 06:31:34;;;;;;;;;;;;;;;8.25;55.89;100505.63;7394996;19;19918;-58
2022/12/23 06:34:00;;;;;;;;;;;;;;;8.38;55.42;100500.25;7393740;19;19966;-58
2022/12/23 06:36:26;;;;;;;;;;;;;;;8.50;55.42;100501.09;7395139;19;19911;-59
2022/12/23 06:38:51;;;;;;;;;;;;;;;8.40;55.30;100490.63;7395241;19;19919;-58
2022/12/23 06:41:17;;;;;;;;;;;;;;;8.41;55.12;100494.94;7395133;19;19907;-57
2022/12/23 06:43:43;;;;;;;;;;;;;;;8.35;55.57;100496.28;7391669;19;19911;-58
2022/12/23 06:46:08;;;;;;;;;;;;;;;8.24;55.75;100506.72;7392148;19;19929;-58
2022/12/23 06:48:34;;;;;;;;;;;;;;;8.21;55.89;100514.75;7394131;19;19918;-58
2022/12/23 06:50:59;;;;;;;;;;;;;;;8.31;56.00;100541.53;7394209;19;19919;-61
2022/12/23 06:53:25;;;;;;;;;;;;;;;8.33;55.73;100542.03;7393294;19;19941;-59
2022/12/23 06:55:57;;;;;;;;;;;;;;;8.36;55.88;100543.31;7394722;19;20009;-58
2022/12/23 06:58:23;;;;;;;;;;;;;;;8.40;55.32;100541.50;7394895;19;19919;-59
2022/12/23 07:00:49;;;;;;;;;;;;;;;8.29;55.76;100538.38;7393810;19;20529;-57
2022/12/23 07:03:14;;;;;;;;;;;;;;;8.23;55.86;100535.06;7396262;19;20025;-59
2022/12/23 07:05:40;;;;;;;;;;;;;;;8.25;55.98;100543.69;7391933;19;19906;-58
2022/12/23 07:08:06;;;;;;;;;;;;;;;8.29;56.03;100544.59;7391576;19;19941;-60
2022/12/23 07:10:32;;;;;;;;;;;;;;;8.26;56.00;100536.31;7394151;19;19930;-59
2022/12/23 07:12:58;;;;;;;;;;;;;;;8.24;55.91;100544.00;7393358;19;19911;-60
2022/12/23 07:15:23;;;;;;;;;;;;;;;8.20;56.27;100543.88;7389072;19;19955;-57
2022/12/23 07:17:49;;;;;;;;;;;;;;;8.19;56.28;100544.22;7396549;19;20332;-58
2022/12/23 07:20:15;;;;;;;;;;;;;;;8.21;56.10;100550.88;7393335;19;19911;-58
2022/12/23 07:22:41;;;;;;;;;;;;;;;8.14;56.26;100542.47;7392527;19;19934;-58
2022/12/23 07:25:07;;;;;;;;;;;;;;;8.20;56.42;100559.38;7391196;19;19922;-58
2022/12/23 07:27:32;;;;;;;;;;;;;;;8.24;56.25;100560.31;7393113;19;19915;-58
2022/12/23 07:29:58;;;;;;;;;;;;;;;8.29;56.15;100549.25;7391904;19;19923;-57
2022/12/23 07:32:24;;;;;;;;;;;;;;;8.38;55.96;100562.81;7392094;19;19918;-57
2022/12/23 07:34:49;;;;;;;;;;;;;;;8.34;55.59;100558.03;7392285;19;19927;-58
2022/12/23 07:37:15;;;;;;;;;;;;;;;8.28;55.75;100558.50;7393196;19;20302;-59
2022/12/23 07:39:40;;;;;;;;;;;;;;;8.25;56.08;100556.47;7390968;19;20360;-58
2022/12/23 07:42:06;;;;;;;;;;;;;;;8.23;55.98;100561.44;7391435;19;19923;-58
2022/12/23 07:44:32;;;;;;;;;;;;;;;8.25;56.14;100568.16;7388414;19;20334;-58
2022/12/23 07:46:57;;;;;;;;;;;;;;;8.31;55.71;100574.19;7393030;19;19919;-58
2022/12/23 07:49:23;;;;;;;;;;;;;;;8.32;55.52;100589.41;7390690;19;19911;-58
2022/12/23 07:51:49;;;;;;;;;;;;;;;8.25;55.61;100578.25;7392235;19;19915;-58
2022/12/23 07:54:14;;;;;;;;;;;;;;;8.26;55.25;100591.47;7390917;19;19919;-57
2022/12/23 07:56:40;;;;;;;;;;;;;;;8.23;55.37;100588.63;7392859;19;20674;-57
2022/12/23 07:59:06;;;;;;;;;;;;;;;8.18;55.26;100586.91;7392960;19;19911;-59
2022/12/23 08:01:31;;;;;;;;;;;;;;;8.27;55.26;100597.72;7391596;19;19903;-58
2022/12/23 08:03:57;;;;;;;;;;;;;;;8.27;55.42;100595.00;7391001;19;19930;-58
2022/12/23 08:06:22;;;;;;;;;;;;;;;8.28;55.56;100607.47;7389749;19;19911;-58
2022/12/23 08:08:48;;;;;;;;;;;;;;;8.24;55.35;100611.97;7391141;19;19917;-57
2022/12/23 08:11:14;;;;;;;;;;;;;;;8.31;55.12;100612.25;7389814;19;19910;-58
2022/12/23 08:13:41;;;;;;;;;;;;;;;8.27;55.38;100612.13;7390986;19;20331;-57
2022/12/23 08:16:07;;;;;;;;;;;;;;;8.20;55.28;100617.28;7390947;19;19911;-57
2022/12/23 08:18:33;;;;;;;;;;;;;;;8.35;55.38;100618.66;7392336;19;19936;-58
2022/12/23 08:21:01;;;;;;;;;;;;;;;8.45;55.03;100625.63;7391260;19;19939;-59
2022/12/23 08:23:27;;;;;;;;;;;;;;;8.48;55.14;100623.06;7391632;19;19919;-58
2022/12/23 08:26:04;;;;;;;;;;;;;;;8.42;55.13;100624.38;7389756;19;19919;-57
2022/12/23 08:28:30;;;;;;;;;;;;;;;8.40;55.50;100642.13;7390762;19;20205;-58
2022/12/23 08:31:02;;;;;;;;;;;;;;;8.43;55.58;100646.91;7391984;19;19945;-58
2022/12/23 08:33:27;;;;;;;;;;;;;;;8.58;55.44;100648.25;7390452;19;20272;-57
2022/12/23 08:35:53;;;;;;;;;;;;;;;8.54;55.22;100642.69;7391022;19;19918;-58
2022/12/23 08:38:19;;;;;;;;;;;;;;;8.45;55.50;100648.19;7393166;19;19918;-58
2022/12/23 08:40:44;;;;;;;;;;;;;;;8.46;55.47;100649.75;7398770;19;19942;-58
2022/12/23 08:43:10;;;;;;;;;;;;;;;8.44;55.41;100646.59;7397265;19;19917;-58
2022/12/23 08:45:37;;;;;;;;;;;;;;;8.43;55.43;100647.72;7395150;19;20354;-58
2022/12/23 08:48:03;;;;;;;;;;;;;;;8.49;55.55;100646.38;7398631;19;20315;-58
2022/12/23 08:50:29;;;;;;;;;;;;;;;8.49;55.27;100646.38;7399221;19;19925;-58
2022/12/23 08:52:54;;;;;;;;;;;;;;;8.55;55.50;100651.63;7397690;19;19946;-58
2022/12/23 08:55:20;;;;;;;;;;;;;;;8.58;54.98;100642.81;7396507;19;19942;-58
2022/12/23 08:57:46;;;;;;;;;;;;;;;8.53;55.12;100638.34;7396882;19;19915;-57
2022/12/23 09:00:11;;;;;;;;;;;;;;;8.53;55.24;100639.19;7396702;19;19919;-59
2022/12/23 09:02:37;;;;;;;;;;;;;;;8.60;55.04;100640.56;7397725;19;19925;-57
2022/12/23 09:05:03;;;;;;;;;;;;;;;8.62;54.97;100628.22;7393948;19;19970;-58
2022/12/23 09:07:28;;;;;;;;;;;;;;;8.74;54.90;100630.22;7398071;19;19947;-57
2022/12/23 09:09:54;;;;;;;;;;;;;;;8.80;54.75;100623.44;7394762;19;19918;-58
2022/12/23 09:12:19;;;;;;;;;;;;;;;8.79;54.79;100616.41;7396794;19;19978;-58
2022/12/23 09:14:46;;;;;;;;;;;;;;;8.79;55.05;100608.22;7395864;19;19989;-57
2022/12/23 09:17:12;;;;;;;;;;;;;;;8.90;54.72;100609.41;7397980;19;19987;-58
2022/12/23 09:19:38;;;;;;;;;;;;;;;8.89;54.55;100609.75;7396834;19;19923;-57
2022/12/23 09:22:03;;;;;;;;;;;;;;;8.79;54.82;100619.13;7397912;19;19911;-58
2022/12/23 09:24:29;;;;;;;;;;;;;;;8.85;55.09;100615.06;7395532;19;19947;-58
2022/12/23 09:27:04;;;;;;;;;;;;;;;8.86;54.69;100610.41;7393603;19;19938;-58
2022/12/23 09:29:29;;;;;;;;;;;;;;;8.90;54.85;100616.78;7395853;19;19915;-58
2022/12/23 09:31:55;;;;;;;;;;;;;;;9.01;54.64;100619.88;7396835;19;19918;-58
2022/12/23 09:34:20;;;;;;;;;;;;;;;9.02;54.60;100618.78;7395542;19;19914;-58
2022/12/23 09:36:46;;;;;;;;;;;;;;;9.02;54.61;100622.28;7396658;19;19915;-58
2022/12/23 09:39:12;;;;;;;;;;;;;;;9.08;54.53;100631.03;7397405;19;19984;-57
2022/12/23 09:41:49;;;;;;;;;;;;;;;9.09;54.50;100635.34;7396726;19;19921;-57
2022/12/23 09:44:35;;;;;;;;;;;;;;;9.09;54.55;100630.69;7394737;19;19918;-58
2022/12/23 09:47:10;;;;;;;;;;;;;;;9.09;54.52;100632.63;7394770;19;19929;-58
2022/12/23 09:49:38;;;;;;;;;;;;;;;9.09;54.76;100643.50;7394111;19;19918;-59
2022/12/23 09:52:08;;;;;;;;;;;;;;;9.01;54.62;100645.19;7395709;19;19937;-58
2022/12/23 09:54:59;;;;;;;;;;;;;;;9.06;54.81;100636.78;7394076;19;20371;-58
2022/12/23 09:57:35;;;;;;;;;;;;;;;9.15;54.29;100636.75;7394881;19;19911;-57
2022/12/23 10:00:12;;;;;;;;;;;;;;;9.16;54.47;100627.41;7396470;19;19910;-58
2022/12/23 10:03:10;;;;;;;;;;;;;;;9.07;54.44;100632.16;7395149;19;19922;-57
2022/12/23 10:05:58;;;;;;;;;;;;;;;9.14;54.50;100637.84;7390459;19;19918;-58
2022/12/23 10:08:35;;;;;;;;;;;;;;;9.21;54.47;100637.31;7393263;19;19915;-57
2022/12/23 10:11:10;;;;;;;;;;;;;;;9.25;54.26;100632.81;7395120;19;19977;-58
2022/12/23 10:13:38;;;;;;;;;;;;;;;9.15;54.24;100625.03;7394021;19;19921;-57
2022/12/23 10:16:11;;;;;;;;;;;;;;;9.06;54.66;100633.28;7395904;19;20338;-58
2022/12/23 10:18:49;;;;;;;;;;;;;;;9.07;54.66;100613.91;7395541;19;19915;-57
2022/12/23 10:21:23;;;;;;;;;;;;;;;9.11;54.52;100613.22;7395828;19;19932;-58
2022/12/23 10:23:51;;;;;;;;;;;;;;;9.22;54.70;100612.47;7394375;19;19915;-58
2022/12/23 10:26:24;;;;;;;;;;;;;;;9.23;54.42;100608.63;7395494;19;19938;-57
2022/12/23 10:29:07;;;;;;;;;;;;;;;9.29;54.23;100603.75;7394312;19;19914;-57
2022/12/23 10:31:44;;;;;;;;;;;;;;;9.29;54.40;100608.41;7395219;19;19931;-57
2022/12/23 10:34:18;;;;;;;;;;;;;;;9.21;54.31;100615.53;7391753;19;19915;-57
2022/12/23 10:37:04;;;;;;;;;;;;;;;9.27;54.57;100617.69;7395708;19;19915;-57
2022/12/23 10:39:35;;;;;;;;;;;;;;;9.46;54.08;100619.09;7391808;19;19915;-57
2022/12/23 10:42:09;;;;;;;;;;;;;;;9.40;54.33;100618.53;7395113;19;19914;-57
2022/12/23 10:44:55;;;;;;;;;;;;;;;9.37;54.08;100607.53;7391708;19;20274;-57
2022/12/23 10:47:20;;;;;;;;;;;;;;;9.37;54.30;100604.78;7394746;19;19937;-57
2022/12/23 10:50:01;;;;;;;;;;;;;;;9.38;54.14;100600.91;7393372;19;19915;-58
2022/12/23 10:52:28;;;;;;;;;;;;;;;9.42;54.31;100593.69;7393042;19;20354;-57
2022/12/23 10:54:54;;;;;;;;;;;;;;;9.40;54.35;100590.47;7393288;19;19945;-57
2022/12/23 10:57:22;;;;;;;;;;;;;;;9.38;54.14;100577.22;7394166;19;19918;-58
2022/12/23 10:59:47;;;;;;;;;;;;;;;9.32;54.25;100580.50;7394620;19;19911;-57
2022/12/23 11:02:13;;;;;;;;;;;;;;;9.26;54.34;100577.97;7393117;19;19915;-58
2022/12/23 11:04:40;;;;;;;;;;;;;;;9.16;54.62;100575.69;7393321;19;19922;-58
2022/12/23 11:07:08;;;;;;;;;;;;;;;9.15;54.70;100578.75;7391910;19;20344;-57
2022/12/23 11:09:41;;;;;;;;;;;;;;;9.09;54.93;100580.88;7392359;19;20327;-57
2022/12/23 11:12:08;;;;;;;;;;;;;;;9.20;54.78;100573.06;7392098;19;19918;-57
2022/12/23 11:14:39;;;;;;;;;;;;;;;9.18;54.75;100573.44;7393345;19;19918;-58
2022/12/23 11:17:16;;;;;;;;;;;;;;;9.13;54.97;100576.34;7393290;19;19928;-59
2022/12/23 11:19:41;;;;;;;;;;;;;;;9.22;54.66;100566.16;7393608;19;19916;-57
2022/12/23 11:22:19;;;;;;;;;;;;;;;9.26;54.51;100569.78;7393530;19;20350;-58
2022/12/23 11:24:51;;;;;;;;;;;;;;;9.27;54.73;100565.94;7393054;19;19915;-57
2022/12/23 11:27:16;;;;;;;;;;;;;;;9.33;54.69;100561.06;7393895;19;20339;-59
2022/12/23 11:29:50;;;;;;;;;;;;;;;9.36;54.63;100560.41;7391880;19;19913;-57
2022/12/23 11:32:26;;;;;;;;;;;;;;;9.40;54.59;100546.88;7391565;19;20260;-57
2022/12/23 11:34:52;;;;;;;;;;;;;;;9.49;54.54;100550.31;7391555;19;20266;-58
2022/12/23 11:37:38;;;;;;;;;;;;;;;9.45;54.70;100554.88;7393888;19;19930;-58
2022/12/23 11:40:05;;;;;;;;;;;;;;;9.36;54.95;100551.44;7391795;19;19925;-57
2022/12/23 11:42:32;;;;;;;;;;;;;;;9.46;54.35;100556.44;7392682;19;20036;-57
2022/12/23 11:44:59;;;;;;;;;;;;;;;9.44;54.48;100548.59;7391054;19;19918;-58
2022/12/23 11:47:28;;;;;;;;;;;;;;;9.40;54.47;100546.88;7393330;19;19933;-59
2022/12/23 11:49:55;;;;;;;;;;;;;;;9.47;54.42;100544.41;7389558;19;19914;-59
2022/12/23 11:52:21;;;;;;;;;;;;;;;9.52;54.22;100552.38;7392868;19;19918;-58
2022/12/23 11:54:52;;;;;;;;;;;;;;;9.50;54.44;100556.56;7389295;19;19915;-58
2022/12/23 11:57:20;;;;;;;;;;;;;;;9.42;54.56;100561.00;7393417;19;19922;-58
2022/12/23 11:59:51;;;;;;;;;;;;;;;9.44;54.56;100553.25;7391655;19;19922;-57
2022/12/23 12:02:20;;;;;;;;;;;;;;;9.43;54.65;100549.75;7392101;19;19941;-58
2022/12/23 12:04:54;;;;;;;;;;;;;;;9.47;54.37;100552.59;7391291;19;19926;-58
2022/12/23 12:07:20;;;;;;;;;;;;;;;9.45;54.35;100544.75;7392230;19;20032;-58
2022/12/23 12:09:46;;;;;;;;;;;;;;;9.48;54.23;100539.75;7390434;19;19927;-61
2022/12/23 12:12:19;;;;;;;;;;;;;;;9.47;54.33;100541.69;7390096;19;19919;-58
2022/12/23 12:14:47;;;;;;;;;;;;;;;9.41;54.47;100537.59;7391173;19;19915;-57
2022/12/23 12:17:15;;;;;;;;;;;;;;;9.40;54.30;100536.00;7391285;19;19941;-57
2022/12/23 12:20:00;;;;;;;;;;;;;;;9.40;54.39;100534.09;7392047;19;20021;-57
2022/12/23 12:22:43;;;;;;;;;;;;;;;9.40;54.47;100523.19;7390493;19;19978;-57
2022/12/23 12:25:21;;;;;;;;;;;;;;;9.48;54.32;100521.47;7390070;19;20378;-58
2022/12/23 12:28:09;;;;;;;;;;;;;;;9.49;54.69;100528.53;7389823;19;19918;-58
2022/12/23 12:30:51;;;;;;;;;;;;;;;9.50;54.65;100524.66;7389808;19;19945;-57
2022/12/23 12:33:20;;;;;;;;;;;;;;;9.55;54.75;100527.16;7388967;19;19911;-57
2022/12/23 12:35:48;;;;;;;;;;;;;;;9.55;54.89;100516.28;7389818;19;19915;-57
2022/12/23 12:38:13;;;;;;;;;;;;;;;9.60;54.52;100505.16;7391522;19;19934;-58
2022/12/23 12:40:39;;;;;;;;;;;;;;;9.64;54.53;100495.16;7391932;19;19985;-57
2022/12/23 12:43:21;;;;;;;;;;;;;;;9.65;54.39;100490.53;7390472;19;20391;-58
2022/12/23 12:45:57;;;;;;;;;;;;;;;9.63;54.17;100479.97;7388372;19;19914;-57
2022/12/23 12:48:22;;;;;;;;;;;;;;;9.55;54.38;100474.59;7390487;19;19986;-58
2022/12/23 12:50:55;;;;;;;;;;;;;;;9.51;54.32;100477.19;7391665;19;19959;-57
2022/12/23 12:53:21;;;;;;;;;;;;;;;9.59;54.21;100473.59;7389791;19;19918;-57
2022/12/23 12:55:49;;;;;;;;;;;;;;;9.61;53.84;100475.97;7387254;19;20005;-58
2022/12/23 12:58:19;;;;;;;;;;;;;;;9.67;53.89;100473.81;7391147;19;19926;-58
2022/12/23 13:01:08;;;;;;;;;;;;;;;9.55;54.27;100478.13;7390963;19;19934;-58
2022/12/23 13:03:52;;;;;;;;;;;;;;;9.52;54.87;100486.97;7386409;19;20324;-57
2022/12/23 13:06:31;;;;;;;;;;;;;;;9.50;54.58;100483.81;7390778;19;20244;-58
2022/12/23 13:09:06;;;;;;;;;;;;;;;9.62;54.71;100483.81;7389097;19;19922;-59
2022/12/23 13:11:42;;;;;;;;;;;;;;;9.72;53.89;100477.09;7391200;19;19923;-57
2022/12/23 13:14:08;;;;;;;;;;;;;;;9.73;54.07;100475.94;7388310;19;19930;-57
2022/12/23 13:16:56;;;;;;;;;;;;;;;9.74;54.07;100472.09;7390748;19;20003;-58
2022/12/23 13:19:40;;;;;;;;;;;;;;;9.63;53.97;100469.06;7387472;19;19921;-58